sensor_id;sensor_type;location;lat;lon;timestamp;P1;durP1;ratioP1;P2;durP2;ratioP2
63093;SDS011;49183;51.380;0.098;2022-09-12T00:01:12;5.43;;;2.80;;
63093;SDS011;49183;51.380;0.098;2022-09-12T00:03:42;5.00;;;2.63;;
63093;SDS011;49183;51.380;0.098;2022-09-12T00:06:17;4.65;;;2.33;;
63093;SDS011;49183;51.380;0.098;2022-09-12T00:08:49;3.22;;;2.90;;
63093;SDS011;49183;51.380;0.098;2022-09-12T00:11:19;4.55;;;2.65;;
63093;SDS011;49183;51.380;0.098;2022-09-12T00:13:47;6.70;;;3.25;;
63093;SDS011;49183;51.380;0.098;2022-09-12T00:16:18;6.85;;;3.75;;
63093;SDS011;49183;51.380;0.098;2022-09-12T00:18:48;5.30;;;2.38;;
63093;SDS011;49183;51.380;0.098;2022-09-12T00:21:16;8.65;;;3.33;;
63093;SDS011;49183;51.380;0.098;2022-09-12T00:23:45;3.35;;;2.90;;
63093;SDS011;49183;51.380;0.098;2022-09-12T00:26:13;3.63;;;2.92;;
63093;SDS011;49183;51.380;0.098;2022-09-12T00:28:41;6.03;;;3.92;;
63093;SDS011;49183;51.380;0.098;2022-09-12T00:31:14;6.97;;;3.27;;
63093;SDS011;49183;51.380;0.098;2022-09-12T00:33:44;5.15;;;2.97;;
63093;SDS011;49183;51.380;0.098;2022-09-12T00:36:14;3.85;;;2.83;;
63093;SDS011;49183;51.380;0.098;2022-09-12T00:38:43;5.13;;;4.50;;
63093;SDS011;49183;51.380;0.098;2022-09-12T00:41:19;5.95;;;3.83;;
63093;SDS011;49183;51.380;0.098;2022-09-12T00:43:50;5.45;;;4.07;;
63093;SDS011;49183;51.380;0.098;2022-09-12T00:46:30;3.97;;;3.35;;
63093;SDS011;49183;51.380;0.098;2022-09-12T00:52:14;5.95;;;3.50;;
63093;SDS011;49183;51.380;0.098;2022-09-12T00:54:51;5.60;;;3.65;;
63093;SDS011;49183;51.380;0.098;2022-09-12T00:57:29;3.95;;;3.53;;
63093;SDS011;49183;51.380;0.098;2022-09-12T01:00:03;6.80;;;4.57;;
63093;SDS011;49183;51.380;0.098;2022-09-12T01:02:43;6.20;;;3.97;;
63093;SDS011;49183;51.380;0.098;2022-09-12T01:05:17;9.23;;;3.90;;
63093;SDS011;49183;51.380;0.098;2022-09-12T01:07:45;7.43;;;3.90;;
63093;SDS011;49183;51.380;0.098;2022-09-12T01:10:17;9.60;;;5.13;;
63093;SDS011;49183;51.380;0.098;2022-09-12T01:15:13;6.22;;;4.95;;
63093;SDS011;49183;51.380;0.098;2022-09-12T01:17:50;5.80;;;4.32;;
63093;SDS011;49183;51.380;0.098;2022-09-12T01:32:11;8.25;;;5.55;;
63093;SDS011;49183;51.380;0.098;2022-09-12T01:45:45;11.77;;;7.72;;
63093;SDS011;49183;51.380;0.098;2022-09-12T01:48:23;11.03;;;6.30;;
63093;SDS011;49183;51.380;0.098;2022-09-12T01:50:57;12.63;;;7.00;;
63093;SDS011;49183;51.380;0.098;2022-09-12T01:53:26;8.65;;;6.45;;
63093;SDS011;49183;51.380;0.098;2022-09-12T01:56:10;8.40;;;7.47;;
63093;SDS011;49183;51.380;0.098;2022-09-12T01:58:57;9.70;;;7.30;;
63093;SDS011;49183;51.380;0.098;2022-09-12T02:06:42;9.73;;;6.72;;
63093;SDS011;49183;51.380;0.098;2022-09-12T02:09:34;10.57;;;7.53;;
63093;SDS011;49183;51.380;0.098;2022-09-12T02:12:05;9.30;;;7.90;;
63093;SDS011;49183;51.380;0.098;2022-09-12T02:14:37;10.63;;;7.85;;
63093;SDS011;49183;51.380;0.098;2022-09-12T02:17:10;11.85;;;8.20;;
63093;SDS011;49183;51.380;0.098;2022-09-12T02:19:41;8.60;;;7.72;;
63093;SDS011;49183;51.380;0.098;2022-09-12T02:22:13;12.27;;;9.88;;
63093;SDS011;49183;51.380;0.098;2022-09-12T02:24:45;11.50;;;8.05;;
63093;SDS011;49183;51.380;0.098;2022-09-12T02:27:20;11.60;;;8.23;;
63093;SDS011;49183;51.380;0.098;2022-09-12T02:29:52;19.30;;;9.85;;
63093;SDS011;49183;51.380;0.098;2022-09-12T02:40:27;11.25;;;9.02;;
63093;SDS011;49183;51.380;0.098;2022-09-12T02:42:56;12.85;;;9.25;;
63093;SDS011;49183;51.380;0.098;2022-09-12T02:45:25;11.52;;;9.38;;
63093;SDS011;49183;51.380;0.098;2022-09-12T02:47:57;11.23;;;9.27;;
63093;SDS011;49183;51.380;0.098;2022-09-12T02:50:28;11.23;;;8.80;;
63093;SDS011;49183;51.380;0.098;2022-09-12T02:52:56;14.05;;;9.20;;
63093;SDS011;49183;51.380;0.098;2022-09-12T02:55:31;11.35;;;9.10;;
63093;SDS011;49183;51.380;0.098;2022-09-12T02:58:00;12.23;;;9.55;;
63093;SDS011;49183;51.380;0.098;2022-09-12T03:00:33;16.38;;;9.65;;
63093;SDS011;49183;51.380;0.098;2022-09-12T03:05:52;12.85;;;9.45;;
63093;SDS011;49183;51.380;0.098;2022-09-12T03:19:36;11.82;;;9.20;;
63093;SDS011;49183;51.380;0.098;2022-09-12T03:22:29;10.95;;;9.35;;
63093;SDS011;49183;51.380;0.098;2022-09-12T03:27:58;17.70;;;9.57;;
63093;SDS011;49183;51.380;0.098;2022-09-12T03:30:40;13.80;;;9.80;;
63093;SDS011;49183;51.380;0.098;2022-09-12T03:33:11;14.27;;;10.10;;
63093;SDS011;49183;51.380;0.098;2022-09-12T03:35:44;10.63;;;9.43;;
63093;SDS011;49183;51.380;0.098;2022-09-12T03:38:12;14.10;;;10.23;;
63093;SDS011;49183;51.380;0.098;2022-09-12T03:40:40;12.68;;;10.57;;
63093;SDS011;49183;51.380;0.098;2022-09-12T03:43:09;13.83;;;11.00;;
63093;SDS011;49183;51.380;0.098;2022-09-12T03:45:37;14.15;;;9.57;;
63093;SDS011;49183;51.380;0.098;2022-09-12T03:48:05;18.57;;;12.03;;
63093;SDS011;49183;51.380;0.098;2022-09-12T03:50:33;13.30;;;10.43;;
63093;SDS011;49183;51.380;0.098;2022-09-12T03:53:01;13.88;;;11.63;;
63093;SDS011;49183;51.380;0.098;2022-09-12T03:55:29;12.98;;;11.18;;
63093;SDS011;49183;51.380;0.098;2022-09-12T03:57:57;16.38;;;11.68;;
63093;SDS011;49183;51.380;0.098;2022-09-12T04:00:25;16.52;;;11.35;;
63093;SDS011;49183;51.380;0.098;2022-09-12T04:02:54;13.95;;;11.35;;
63093;SDS011;49183;51.380;0.098;2022-09-12T04:05:23;13.45;;;10.65;;
63093;SDS011;49183;51.380;0.098;2022-09-12T04:07:51;17.45;;;11.65;;
63093;SDS011;49183;51.380;0.098;2022-09-12T04:10:19;18.45;;;11.15;;
63093;SDS011;49183;51.380;0.098;2022-09-12T04:12:47;17.08;;;11.45;;
63093;SDS011;49183;51.380;0.098;2022-09-12T04:15:14;19.15;;;11.40;;
63093;SDS011;49183;51.380;0.098;2022-09-12T04:17:42;15.43;;;11.75;;
63093;SDS011;49183;51.380;0.098;2022-09-12T04:20:09;13.57;;;11.48;;
63093;SDS011;49183;51.380;0.098;2022-09-12T04:22:37;15.00;;;11.70;;
63093;SDS011;49183;51.380;0.098;2022-09-12T04:25:05;24.40;;;14.05;;
63093;SDS011;49183;51.380;0.098;2022-09-12T04:27:33;14.73;;;11.45;;
63093;SDS011;49183;51.380;0.098;2022-09-12T04:30:01;14.57;;;11.68;;
63093;SDS011;49183;51.380;0.098;2022-09-12T04:32:30;12.00;;;10.68;;
63093;SDS011;49183;51.380;0.098;2022-09-12T04:34:57;17.50;;;11.27;;
63093;SDS011;49183;51.380;0.098;2022-09-12T04:37:25;18.33;;;11.75;;
63093;SDS011;49183;51.380;0.098;2022-09-12T04:39:53;17.33;;;11.70;;
63093;SDS011;49183;51.380;0.098;2022-09-12T04:42:24;15.45;;;11.35;;
63093;SDS011;49183;51.380;0.098;2022-09-12T04:44:51;15.65;;;12.05;;
63093;SDS011;49183;51.380;0.098;2022-09-12T04:47:19;14.30;;;11.75;;
63093;SDS011;49183;51.380;0.098;2022-09-12T04:49:47;14.50;;;11.55;;
63093;SDS011;49183;51.380;0.098;2022-09-12T04:52:15;21.45;;;12.40;;
63093;SDS011;49183;51.380;0.098;2022-09-12T04:54:43;17.02;;;12.52;;
63093;SDS011;49183;51.380;0.098;2022-09-12T04:57:10;21.70;;;12.52;;
63093;SDS011;49183;51.380;0.098;2022-09-12T04:59:39;14.30;;;12.07;;
63093;SDS011;49183;51.380;0.098;2022-09-12T05:02:06;20.52;;;12.75;;
63093;SDS011;49183;51.380;0.098;2022-09-12T05:04:34;17.13;;;12.05;;
63093;SDS011;49183;51.380;0.098;2022-09-12T05:07:02;15.38;;;11.65;;
63093;SDS011;49183;51.380;0.098;2022-09-12T05:09:29;17.33;;;12.98;;
63093;SDS011;49183;51.380;0.098;2022-09-12T05:11:57;17.63;;;11.38;;
63093;SDS011;49183;51.380;0.098;2022-09-12T05:14:31;16.23;;;12.30;;
63093;SDS011;49183;51.380;0.098;2022-09-12T05:16:59;20.65;;;12.40;;
63093;SDS011;49183;51.380;0.098;2022-09-12T05:19:28;20.45;;;12.75;;
63093;SDS011;49183;51.380;0.098;2022-09-12T05:21:56;22.25;;;14.43;;
63093;SDS011;49183;51.380;0.098;2022-09-12T05:24:25;19.67;;;12.70;;
63093;SDS011;49183;51.380;0.098;2022-09-12T05:26:52;17.10;;;12.87;;
63093;SDS011;49183;51.380;0.098;2022-09-12T05:29:20;20.48;;;13.02;;
63093;SDS011;49183;51.380;0.098;2022-09-12T05:31:48;18.27;;;12.93;;
63093;SDS011;49183;51.380;0.098;2022-09-12T05:34:18;18.05;;;12.40;;
63093;SDS011;49183;51.380;0.098;2022-09-12T05:36:46;17.30;;;13.10;;
63093;SDS011;49183;51.380;0.098;2022-09-12T05:39:14;19.60;;;13.13;;
63093;SDS011;49183;51.380;0.098;2022-09-12T05:41:41;20.73;;;12.80;;
63093;SDS011;49183;51.380;0.098;2022-09-12T05:44:11;19.15;;;13.48;;
63093;SDS011;49183;51.380;0.098;2022-09-12T05:46:41;18.15;;;12.45;;
63093;SDS011;49183;51.380;0.098;2022-09-12T05:49:11;18.60;;;12.88;;
63093;SDS011;49183;51.380;0.098;2022-09-12T05:51:40;22.45;;;13.07;;
63093;SDS011;49183;51.380;0.098;2022-09-12T05:54:10;20.60;;;14.10;;
63093;SDS011;49183;51.380;0.098;2022-09-12T05:56:41;18.88;;;14.18;;
63093;SDS011;49183;51.380;0.098;2022-09-12T05:59:11;19.63;;;12.93;;
63093;SDS011;49183;51.380;0.098;2022-09-12T06:01:40;20.98;;;13.35;;
63093;SDS011;49183;51.380;0.098;2022-09-12T06:04:08;18.02;;;14.63;;
63093;SDS011;49183;51.380;0.098;2022-09-12T06:06:38;15.68;;;12.20;;
63093;SDS011;49183;51.380;0.098;2022-09-12T06:09:08;17.73;;;13.98;;
63093;SDS011;49183;51.380;0.098;2022-09-12T06:11:36;22.05;;;15.15;;
63093;SDS011;49183;51.380;0.098;2022-09-12T06:14:07;19.88;;;14.10;;
63093;SDS011;49183;51.380;0.098;2022-09-12T06:16:36;23.00;;;14.93;;
63093;SDS011;49183;51.380;0.098;2022-09-12T06:19:15;19.33;;;13.20;;
63093;SDS011;49183;51.380;0.098;2022-09-12T06:21:44;20.88;;;15.13;;
63093;SDS011;49183;51.380;0.098;2022-09-12T06:24:13;20.17;;;13.52;;
63093;SDS011;49183;51.380;0.098;2022-09-12T06:26:41;17.75;;;13.15;;
63093;SDS011;49183;51.380;0.098;2022-09-12T06:29:09;20.63;;;14.50;;
63093;SDS011;49183;51.380;0.098;2022-09-12T06:31:38;17.53;;;13.20;;
63093;SDS011;49183;51.380;0.098;2022-09-12T06:34:09;19.83;;;13.20;;
63093;SDS011;49183;51.380;0.098;2022-09-12T06:36:43;18.27;;;12.45;;
63093;SDS011;49183;51.380;0.098;2022-09-12T06:39:15;21.95;;;14.02;;
63093;SDS011;49183;51.380;0.098;2022-09-12T06:41:44;16.17;;;12.45;;
63093;SDS011;49183;51.380;0.098;2022-09-12T06:44:13;19.23;;;12.80;;
63093;SDS011;49183;51.380;0.098;2022-09-12T06:46:45;17.88;;;12.88;;
63093;SDS011;49183;51.380;0.098;2022-09-12T06:49:13;19.83;;;13.30;;
63093;SDS011;49183;51.380;0.098;2022-09-12T06:51:41;20.80;;;12.13;;
63093;SDS011;49183;51.380;0.098;2022-09-12T06:54:11;18.95;;;11.20;;
63093;SDS011;49183;51.380;0.098;2022-09-12T06:56:40;14.40;;;11.40;;
63093;SDS011;49183;51.380;0.098;2022-09-12T06:59:07;16.98;;;11.40;;
63093;SDS011;49183;51.380;0.098;2022-09-12T07:01:35;21.15;;;12.30;;
63093;SDS011;49183;51.380;0.098;2022-09-12T07:04:03;17.45;;;12.45;;
63093;SDS011;49183;51.380;0.098;2022-09-12T07:06:37;18.08;;;11.63;;
63093;SDS011;49183;51.380;0.098;2022-09-12T07:11:43;15.98;;;10.82;;
63093;SDS011;49183;51.380;0.098;2022-09-12T07:16:40;19.33;;;10.90;;
63093;SDS011;49183;51.380;0.098;2022-09-12T07:19:08;14.03;;;11.20;;
63093;SDS011;49183;51.380;0.098;2022-09-12T07:21:36;26.15;;;14.90;;
63093;SDS011;49183;51.380;0.098;2022-09-12T07:24:07;15.73;;;11.73;;
63093;SDS011;49183;51.380;0.098;2022-09-12T07:26:36;16.02;;;11.60;;
63093;SDS011;49183;51.380;0.098;2022-09-12T07:29:06;13.90;;;11.30;;
63093;SDS011;49183;51.380;0.098;2022-09-12T07:31:58;16.67;;;11.65;;
63093;SDS011;49183;51.380;0.098;2022-09-12T07:36:56;18.25;;;11.85;;
63093;SDS011;49183;51.380;0.098;2022-09-12T07:39:24;16.70;;;11.10;;
63093;SDS011;49183;51.380;0.098;2022-09-12T07:41:52;16.75;;;11.02;;
63093;SDS011;49183;51.380;0.098;2022-09-12T07:44:19;15.73;;;9.48;;
63093;SDS011;49183;51.380;0.098;2022-09-12T07:46:48;13.70;;;9.25;;
63093;SDS011;49183;51.380;0.098;2022-09-12T07:49:16;12.60;;;8.75;;
63093;SDS011;49183;51.380;0.098;2022-09-12T07:51:44;11.55;;;8.10;;
63093;SDS011;49183;51.380;0.098;2022-09-12T07:54:12;10.80;;;8.13;;
63093;SDS011;49183;51.380;0.098;2022-09-12T07:56:40;12.05;;;10.00;;
63093;SDS011;49183;51.380;0.098;2022-09-12T07:59:07;9.82;;;8.82;;
63093;SDS011;49183;51.380;0.098;2022-09-12T08:01:38;9.55;;;8.35;;
63093;SDS011;49183;51.380;0.098;2022-09-12T08:04:07;10.82;;;8.18;;
63093;SDS011;49183;51.380;0.098;2022-09-12T08:06:35;11.95;;;8.25;;
63093;SDS011;49183;51.380;0.098;2022-09-12T08:09:03;13.35;;;7.80;;
63093;SDS011;49183;51.380;0.098;2022-09-12T08:11:31;9.05;;;7.75;;
63093;SDS011;49183;51.380;0.098;2022-09-12T08:13:59;9.75;;;7.70;;
63093;SDS011;49183;51.380;0.098;2022-09-12T08:16:29;11.60;;;7.15;;
63093;SDS011;49183;51.380;0.098;2022-09-12T08:21:29;10.45;;;7.25;;
63093;SDS011;49183;51.380;0.098;2022-09-12T08:23:59;10.15;;;8.15;;
63093;SDS011;49183;51.380;0.098;2022-09-12T08:26:29;12.70;;;7.63;;
63093;SDS011;49183;51.380;0.098;2022-09-12T08:31:27;10.90;;;7.35;;
63093;SDS011;49183;51.380;0.098;2022-09-12T08:33:55;9.85;;;7.00;;
63093;SDS011;49183;51.380;0.098;2022-09-12T08:36:25;9.20;;;7.57;;
63093;SDS011;49183;51.380;0.098;2022-09-12T08:38:55;7.82;;;6.45;;
63093;SDS011;49183;51.380;0.098;2022-09-12T08:41:30;6.80;;;6.10;;
63093;SDS011;49183;51.380;0.098;2022-09-12T08:49:17;11.85;;;6.63;;
63093;SDS011;49183;51.380;0.098;2022-09-12T08:51:57;11.73;;;6.95;;
63093;SDS011;49183;51.380;0.098;2022-09-12T08:54:31;8.48;;;5.38;;
63093;SDS011;49183;51.380;0.098;2022-09-12T08:59:36;8.68;;;5.93;;
63093;SDS011;49183;51.380;0.098;2022-09-12T09:10:25;7.47;;;5.38;;
63093;SDS011;49183;51.380;0.098;2022-09-12T09:13:16;6.28;;;5.60;;
63093;SDS011;49183;51.380;0.098;2022-09-12T09:16:18;7.18;;;6.38;;
63093;SDS011;49183;51.380;0.098;2022-09-12T09:19:08;6.15;;;4.15;;
63093;SDS011;49183;51.380;0.098;2022-09-12T09:24:39;8.90;;;4.07;;
63093;SDS011;49183;51.380;0.098;2022-09-12T09:27:22;8.05;;;4.63;;
63093;SDS011;49183;51.380;0.098;2022-09-12T09:30:12;6.43;;;4.97;;
63093;SDS011;49183;51.380;0.098;2022-09-12T09:32:42;9.48;;;5.50;;
63093;SDS011;49183;51.380;0.098;2022-09-12T09:37:58;5.80;;;4.25;;
63093;SDS011;49183;51.380;0.098;2022-09-12T09:43:22;5.63;;;4.30;;
63093;SDS011;49183;51.380;0.098;2022-09-12T09:45:53;7.55;;;5.07;;
63093;SDS011;49183;51.380;0.098;2022-09-12T09:48:27;7.88;;;4.45;;
63093;SDS011;49183;51.380;0.098;2022-09-12T09:50:59;3.95;;;3.25;;
63093;SDS011;49183;51.380;0.098;2022-09-12T09:59:15;6.50;;;4.30;;
63093;SDS011;49183;51.380;0.098;2022-09-12T10:01:52;6.25;;;3.85;;
63093;SDS011;49183;51.380;0.098;2022-09-12T10:04:25;4.55;;;3.78;;
63093;SDS011;49183;51.380;0.098;2022-09-12T10:06:59;5.32;;;3.92;;
63093;SDS011;49183;51.380;0.098;2022-09-12T10:09:36;6.72;;;3.97;;
63093;SDS011;49183;51.380;0.098;2022-09-12T10:12:19;7.68;;;5.97;;
63093;SDS011;49183;51.380;0.098;2022-09-12T10:14:57;6.00;;;4.20;;
63093;SDS011;49183;51.380;0.098;2022-09-12T10:17:30;4.95;;;3.47;;
63093;SDS011;49183;51.380;0.098;2022-09-12T10:23:01;8.07;;;4.72;;
63093;SDS011;49183;51.380;0.098;2022-09-12T10:25:56;6.70;;;3.25;;
63093;SDS011;49183;51.380;0.098;2022-09-12T10:31:09;5.75;;;3.25;;
63093;SDS011;49183;51.380;0.098;2022-09-12T10:33:42;5.70;;;2.78;;
63093;SDS011;49183;51.380;0.098;2022-09-12T10:36:14;5.53;;;3.10;;
63093;SDS011;49183;51.380;0.098;2022-09-12T10:38:56;4.35;;;2.95;;
63093;SDS011;49183;51.380;0.098;2022-09-12T10:41:33;7.88;;;3.72;;
63093;SDS011;49183;51.380;0.098;2022-09-12T10:44:06;4.97;;;2.08;;
63093;SDS011;49183;51.380;0.098;2022-09-12T10:46:40;5.35;;;2.10;;
63093;SDS011;49183;51.380;0.098;2022-09-12T10:49:19;2.65;;;2.10;;
63093;SDS011;49183;51.380;0.098;2022-09-12T10:51:49;2.22;;;1.50;;
63093;SDS011;49183;51.380;0.098;2022-09-12T10:54:18;5.70;;;1.75;;
63093;SDS011;49183;51.380;0.098;2022-09-12T11:04:55;4.38;;;2.10;;
63093;SDS011;49183;51.380;0.098;2022-09-12T11:07:45;2.92;;;1.77;;
63093;SDS011;49183;51.380;0.098;2022-09-12T11:18:59;6.25;;;1.98;;
63093;SDS011;49183;51.380;0.098;2022-09-12T11:23:28;2.65;;;1.48;;
63093;SDS011;49183;51.380;0.098;2022-09-12T11:29:09;2.58;;;1.25;;
63093;SDS011;49183;51.380;0.098;2022-09-12T11:32:20;4.53;;;1.55;;
63093;SDS011;49183;51.380;0.098;2022-09-12T11:38:09;5.53;;;1.80;;
63093;SDS011;49183;51.380;0.098;2022-09-12T11:43:25;3.33;;;1.73;;
63093;SDS011;49183;51.380;0.098;2022-09-12T11:46:04;4.33;;;1.90;;
63093;SDS011;49183;51.380;0.098;2022-09-12T11:48:53;3.03;;;1.80;;
63093;SDS011;49183;51.380;0.098;2022-09-12T11:52:10;7.18;;;1.70;;
63093;SDS011;49183;51.380;0.098;2022-09-12T11:57:12;3.47;;;1.40;;
63093;SDS011;49183;51.380;0.098;2022-09-12T11:59:48;2.05;;;1.30;;
63093;SDS011;49183;51.380;0.098;2022-09-12T12:02:28;4.25;;;1.40;;
63093;SDS011;49183;51.380;0.098;2022-09-12T12:07:40;4.60;;;2.42;;
63093;SDS011;49183;51.380;0.098;2022-09-12T12:13:04;3.20;;;1.50;;
63093;SDS011;49183;51.380;0.098;2022-09-12T12:15:55;3.83;;;1.80;;
63093;SDS011;49183;51.380;0.098;2022-09-12T12:18:42;2.22;;;1.40;;
63093;SDS011;49183;51.380;0.098;2022-09-12T12:29:12;3.45;;;1.30;;
63093;SDS011;49183;51.380;0.098;2022-09-12T12:34:46;4.47;;;1.38;;
63093;SDS011;49183;51.380;0.098;2022-09-12T12:39:57;3.67;;;1.20;;
63093;SDS011;49183;51.380;0.098;2022-09-12T12:50:20;4.10;;;2.95;;
63093;SDS011;49183;51.380;0.098;2022-09-12T12:53:05;3.20;;;2.35;;
63093;SDS011;49183;51.380;0.098;2022-09-12T12:55:52;4.50;;;3.00;;
63093;SDS011;49183;51.380;0.098;2022-09-12T13:01:10;7.72;;;3.08;;
63093;SDS011;49183;51.380;0.098;2022-09-12T13:03:40;3.97;;;2.58;;
63093;SDS011;49183;51.380;0.098;2022-09-12T13:09:18;6.20;;;3.08;;
63093;SDS011;49183;51.380;0.098;2022-09-12T13:12:05;9.05;;;3.25;;
63093;SDS011;49183;51.380;0.098;2022-09-12T13:14:55;5.93;;;3.00;;
63093;SDS011;49183;51.380;0.098;2022-09-12T13:17:38;4.38;;;2.90;;
63093;SDS011;49183;51.380;0.098;2022-09-12T13:22:56;7.82;;;4.07;;
63093;SDS011;49183;51.380;0.098;2022-09-12T13:27:59;6.78;;;3.08;;
63093;SDS011;49183;51.380;0.098;2022-09-12T13:30:35;5.82;;;3.72;;
63093;SDS011;49183;51.380;0.098;2022-09-12T13:36:26;6.85;;;4.65;;
63093;SDS011;49183;51.380;0.098;2022-09-12T13:39:25;8.82;;;5.28;;
63093;SDS011;49183;51.380;0.098;2022-09-12T13:42:33;8.05;;;5.93;;
63093;SDS011;49183;51.380;0.098;2022-09-12T13:47:56;7.13;;;5.90;;
63093;SDS011;49183;51.380;0.098;2022-09-12T13:50:29;7.80;;;5.90;;
63093;SDS011;49183;51.380;0.098;2022-09-12T13:53:20;7.22;;;6.53;;
63093;SDS011;49183;51.380;0.098;2022-09-12T13:55:52;7.32;;;6.03;;
63093;SDS011;49183;51.380;0.098;2022-09-12T13:58:28;13.40;;;7.03;;
63093;SDS011;49183;51.380;0.098;2022-09-12T14:01:20;11.48;;;7.32;;
63093;SDS011;49183;51.380;0.098;2022-09-12T14:03:49;14.40;;;6.78;;
63093;SDS011;49183;51.380;0.098;2022-09-12T14:09:22;9.38;;;7.13;;
63093;SDS011;49183;51.380;0.098;2022-09-12T14:11:58;12.70;;;6.47;;
63093;SDS011;49183;51.380;0.098;2022-09-12T14:14:34;22.08;;;9.82;;
63093;SDS011;49183;51.380;0.098;2022-09-12T14:17:23;16.10;;;11.25;;
63093;SDS011;49183;51.380;0.098;2022-09-12T14:19:58;12.15;;;8.95;;
63093;SDS011;49183;51.380;0.098;2022-09-12T14:22:30;14.68;;;8.88;;
63093;SDS011;49183;51.380;0.098;2022-09-12T14:25:00;8.55;;;7.35;;
63093;SDS011;49183;51.380;0.098;2022-09-12T14:27:30;12.13;;;7.93;;
63093;SDS011;49183;51.380;0.098;2022-09-12T14:30:07;9.90;;;7.70;;
63093;SDS011;49183;51.380;0.098;2022-09-12T14:35:29;9.73;;;7.13;;
63093;SDS011;49183;51.380;0.098;2022-09-12T14:38:04;9.93;;;8.85;;
63093;SDS011;49183;51.380;0.098;2022-09-12T14:40:42;10.45;;;8.70;;
63093;SDS011;49183;51.380;0.098;2022-09-12T14:46:06;12.18;;;9.75;;
63093;SDS011;49183;51.380;0.098;2022-09-12T14:48:53;13.48;;;8.15;;
63093;SDS011;49183;51.380;0.098;2022-09-12T14:51:34;9.13;;;7.93;;
63093;SDS011;49183;51.380;0.098;2022-09-12T14:54:04;15.25;;;10.07;;
63093;SDS011;49183;51.380;0.098;2022-09-12T14:56:39;13.73;;;9.52;;
63093;SDS011;49183;51.380;0.098;2022-09-12T15:02:21;10.45;;;8.55;;
63093;SDS011;49183;51.380;0.098;2022-09-12T15:04:52;11.60;;;9.43;;
63093;SDS011;49183;51.380;0.098;2022-09-12T15:13:02;16.10;;;11.68;;
63093;SDS011;49183;51.380;0.098;2022-09-12T15:15:38;14.98;;;10.88;;
63093;SDS011;49183;51.380;0.098;2022-09-12T15:18:07;14.50;;;10.18;;
63093;SDS011;49183;51.380;0.098;2022-09-12T15:20:36;10.70;;;9.57;;
63093;SDS011;49183;51.380;0.098;2022-09-12T15:23:06;11.93;;;10.35;;
63093;SDS011;49183;51.380;0.098;2022-09-12T15:25:40;14.90;;;10.18;;
63093;SDS011;49183;51.380;0.098;2022-09-12T15:28:15;12.77;;;11.18;;
63093;SDS011;49183;51.380;0.098;2022-09-12T15:30:46;10.15;;;8.43;;
63093;SDS011;49183;51.380;0.098;2022-09-12T15:33:17;9.57;;;8.60;;
63093;SDS011;49183;51.380;0.098;2022-09-12T15:35:47;10.38;;;8.38;;
63093;SDS011;49183;51.380;0.098;2022-09-12T15:38:15;11.40;;;9.75;;
63093;SDS011;49183;51.380;0.098;2022-09-12T15:40:43;13.80;;;9.00;;
63093;SDS011;49183;51.380;0.098;2022-09-12T15:43:11;10.95;;;9.40;;
63093;SDS011;49183;51.380;0.098;2022-09-12T15:45:42;8.57;;;6.80;;
63093;SDS011;49183;51.380;0.098;2022-09-12T15:48:11;11.52;;;8.70;;
63093;SDS011;49183;51.380;0.098;2022-09-12T15:50:40;9.32;;;7.70;;
63093;SDS011;49183;51.380;0.098;2022-09-12T15:53:10;9.30;;;7.72;;
63093;SDS011;49183;51.380;0.098;2022-09-12T15:55:41;12.70;;;7.85;;
63093;SDS011;49183;51.380;0.098;2022-09-12T15:58:08;9.83;;;8.87;;
63093;SDS011;49183;51.380;0.098;2022-09-12T16:00:36;11.10;;;9.60;;
63093;SDS011;49183;51.380;0.098;2022-09-12T16:03:04;10.40;;;8.73;;
63093;SDS011;49183;51.380;0.098;2022-09-12T16:05:32;9.95;;;8.30;;
63093;SDS011;49183;51.380;0.098;2022-09-12T16:08:00;8.85;;;7.90;;
63093;SDS011;49183;51.380;0.098;2022-09-12T16:10:28;9.57;;;6.50;;
63093;SDS011;49183;51.380;0.098;2022-09-12T16:12:56;11.13;;;7.35;;
63093;SDS011;49183;51.380;0.098;2022-09-12T16:15:24;6.77;;;6.17;;
63093;SDS011;49183;51.380;0.098;2022-09-12T16:17:52;8.57;;;5.97;;
63093;SDS011;49183;51.380;0.098;2022-09-12T16:20:20;9.23;;;6.37;;
63093;SDS011;49183;51.380;0.098;2022-09-12T16:22:48;6.70;;;6.00;;
63093;SDS011;49183;51.380;0.098;2022-09-12T16:25:16;6.65;;;5.65;;
63093;SDS011;49183;51.380;0.098;2022-09-12T16:27:44;6.43;;;5.67;;
63093;SDS011;49183;51.380;0.098;2022-09-12T16:30:11;5.80;;;5.30;;
63093;SDS011;49183;51.380;0.098;2022-09-12T16:32:39;6.63;;;5.97;;
63093;SDS011;49183;51.380;0.098;2022-09-12T16:35:07;9.43;;;5.85;;
63093;SDS011;49183;51.380;0.098;2022-09-12T16:37:35;6.47;;;5.50;;
63093;SDS011;49183;51.380;0.098;2022-09-12T16:40:04;7.50;;;5.45;;
63093;SDS011;49183;51.380;0.098;2022-09-12T16:42:32;11.07;;;5.95;;
63093;SDS011;49183;51.380;0.098;2022-09-12T16:45:00;5.23;;;4.73;;
63093;SDS011;49183;51.380;0.098;2022-09-12T16:47:27;6.07;;;5.47;;
63093;SDS011;49183;51.380;0.098;2022-09-12T16:49:58;7.10;;;4.88;;
63093;SDS011;49183;51.380;0.098;2022-09-12T16:52:25;4.60;;;3.90;;
63093;SDS011;49183;51.380;0.098;2022-09-12T16:54:53;4.20;;;3.43;;
63093;SDS011;49183;51.380;0.098;2022-09-12T16:57:21;3.75;;;3.00;;
63093;SDS011;49183;51.380;0.098;2022-09-12T16:59:49;5.80;;;3.38;;
63093;SDS011;49183;51.380;0.098;2022-09-12T17:02:16;5.93;;;2.88;;
63093;SDS011;49183;51.380;0.098;2022-09-12T17:04:44;3.92;;;3.47;;
63093;SDS011;49183;51.380;0.098;2022-09-12T17:07:12;8.75;;;5.43;;
63093;SDS011;49183;51.380;0.098;2022-09-12T17:09:40;7.85;;;5.68;;
63093;SDS011;49183;51.380;0.098;2022-09-12T17:12:13;8.40;;;7.30;;
63093;SDS011;49183;51.380;0.098;2022-09-12T17:14:40;11.68;;;9.82;;
63093;SDS011;49183;51.380;0.098;2022-09-12T17:17:08;18.40;;;16.50;;
63093;SDS011;49183;51.380;0.098;2022-09-12T17:19:36;18.30;;;16.40;;
63093;SDS011;49183;51.380;0.098;2022-09-12T17:22:03;19.27;;;17.15;;
63093;SDS011;49183;51.380;0.098;2022-09-12T17:24:31;16.13;;;14.43;;
63093;SDS011;49183;51.380;0.098;2022-09-12T17:26:59;16.08;;;14.40;;
63093;SDS011;49183;51.380;0.098;2022-09-12T17:29:27;16.25;;;14.55;;
63093;SDS011;49183;51.380;0.098;2022-09-12T17:31:54;15.65;;;14.02;;
63093;SDS011;49183;51.380;0.098;2022-09-12T17:34:23;19.83;;;15.60;;
63093;SDS011;49183;51.380;0.098;2022-09-12T17:36:50;19.90;;;14.35;;
63093;SDS011;49183;51.380;0.098;2022-09-12T17:39:18;20.52;;;15.05;;
63093;SDS011;49183;51.380;0.098;2022-09-12T17:41:46;18.13;;;13.43;;
63093;SDS011;49183;51.380;0.098;2022-09-12T17:44:16;11.88;;;9.43;;
63093;SDS011;49183;51.380;0.098;2022-09-12T17:46:46;11.25;;;8.20;;
63093;SDS011;49183;51.380;0.098;2022-09-12T17:49:14;5.78;;;5.05;;
63093;SDS011;49183;51.380;0.098;2022-09-12T17:51:43;4.95;;;4.35;;
63093;SDS011;49183;51.380;0.098;2022-09-12T17:54:12;6.07;;;5.47;;
63093;SDS011;49183;51.380;0.098;2022-09-12T17:56:50;5.53;;;3.85;;
63093;SDS011;49183;51.380;0.098;2022-09-12T17:59:20;7.10;;;4.38;;
63093;SDS011;49183;51.380;0.098;2022-09-12T18:01:50;5.07;;;3.95;;
63093;SDS011;49183;51.380;0.098;2022-09-12T18:04:36;4.32;;;3.85;;
63093;SDS011;49183;51.380;0.098;2022-09-12T18:07:06;4.72;;;4.15;;
63093;SDS011;49183;51.380;0.098;2022-09-12T18:09:34;4.05;;;3.60;;
63093;SDS011;49183;51.380;0.098;2022-09-12T18:12:02;6.40;;;3.45;;
63093;SDS011;49183;51.380;0.098;2022-09-12T18:14:30;4.83;;;3.57;;
63093;SDS011;49183;51.380;0.098;2022-09-12T18:16:58;5.13;;;3.90;;
63093;SDS011;49183;51.380;0.098;2022-09-12T18:19:26;5.13;;;4.43;;
63093;SDS011;49183;51.380;0.098;2022-09-12T18:21:54;6.70;;;5.50;;
63093;SDS011;49183;51.380;0.098;2022-09-12T18:24:22;6.33;;;5.77;;